sensor_id;sensor_type;location;lat;lon;timestamp;pressure;altitude;pressure_sealevel;temperature;humidity
57038;BME280;59942;49.304;8.256;2023-01-04T00:01:13;101622.44;;;4.33;100.00
57038;BME280;59942;49.304;8.256;2023-01-04T00:03:41;101516.16;;;3.77;100.00
57038;BME280;59942;49.304;8.256;2023-01-04T00:06:10;101558.19;;;4.04;100.00
57038;BME280;59942;49.304;8.256;2023-01-04T00:08:38;101635.28;;;4.38;100.00
57038;BME280;59942;49.304;8.256;2023-01-04T00:11:13;101603.56;;;4.20;100.00
57038;BME280;59942;49.304;8.256;2023-01-04T00:13:41;101495.53;;;3.54;100.00
57038;BME280;59942;49.304;8.256;2023-01-04T00:16:15;101578.72;;;4.07;100.00
57038;BME280;59942;49.304;8.256;2023-01-04T00:18:42;101529.81;;;3.71;100.00
57038;BME280;59942;49.304;8.256;2023-01-04T00:21:29;101631.03;;;4.32;100.00
57038;BME280;59942;49.304;8.256;2023-01-04T00:23:58;101633.59;;;4.40;100.00
57038;BME280;59942;49.304;8.256;2023-01-04T00:26:28;101639.59;;;4.35;100.00
57038;BME280;59942;49.304;8.256;2023-01-04T00:28:57;101637.88;;;4.38;100.00
57038;BME280;59942;49.304;8.256;2023-01-04T00:31:26;101630.16;;;4.38;100.00
57038;BME280;59942;49.304;8.256;2023-01-04T00:33:54;101631.03;;;4.38;100.00
57038;BME280;59942;49.304;8.256;2023-01-04T00:36:22;101609.59;;;4.27;100.00
57038;BME280;59942;49.304;8.256;2023-01-04T00:38:49;101523.00;;;3.72;100.00
57038;BME280;59942;49.304;8.256;2023-01-04T00:41:49;101613.91;;;4.31;100.00
57038;BME280;59942;49.304;8.256;2023-01-04T00:44:28;101613.91;;;4.37;100.00
57038;BME280;59942;49.304;8.256;2023-01-04T00:46:56;101501.59;;;3.68;100.00
57038;BME280;59942;49.304;8.256;2023-01-04T00:49:24;101541.88;;;3.94;100.00
57038;BME280;59942;49.304;8.256;2023-01-04T00:51:51;101542.72;;;3.90;100.00
57038;BME280;59942;49.304;8.256;2023-01-04T00:54:18;101519.63;;;3.80;100.00
57038;BME280;59942;49.304;8.256;2023-01-04T00:56:46;101544.44;;;3.92;100.00
57038;BME280;59942;49.304;8.256;2023-01-04T00:59:16;101545.28;;;3.90;100.00
57038;BME280;59942;49.304;8.256;2023-01-04T01:01:44;101596.75;;;4.25;100.00
57038;BME280;59942;49.304;8.256;2023-01-04T01:04:13;101594.19;;;4.16;100.00
57038;BME280;59942;49.304;8.256;2023-01-04T01:06:40;101521.28;;;3.69;100.00
57038;BME280;59942;49.304;8.256;2023-01-04T01:09:07;101583.91;;;4.17;100.00
57038;BME280;59942;49.304;8.256;2023-01-04T01:11:35;101523.84;;;3.71;100.00
57038;BME280;59942;49.304;8.256;2023-01-04T01:14:03;101500.72;;;3.57;100.00
57038;BME280;59942;49.304;8.256;2023-01-04T01:16:31;101591.56;;;4.11;100.00
57038;BME280;59942;49.304;8.256;2023-01-04T01:19:18;101522.97;;;3.65;100.00
57038;BME280;59942;49.304;8.256;2023-01-04T01:21:44;101558.13;;;3.91;100.00
57038;BME280;59942;49.304;8.256;2023-01-04T01:24:17;101511.84;;;3.68;100.00
57038;BME280;59942;49.304;8.256;2023-01-04T01:26:44;101602.72;;;4.16;100.00
57038;BME280;59942;49.304;8.256;2023-01-04T01:29:12;101594.09;;;3.97;100.00
57038;BME280;59942;49.304;8.256;2023-01-04T01:31:39;101588.97;;;4.02;100.00
57038;BME280;59942;49.304;8.256;2023-01-04T01:34:06;101553.78;;;3.73;100.00
57038;BME280;59942;49.304;8.256;2023-01-04T01:36:33;101579.50;;;3.87;100.00
57038;BME280;59942;49.304;8.256;2023-01-04T01:39:00;101528.97;;;3.68;100.00
57038;BME280;59942;49.304;8.256;2023-01-04T01:41:30;101561.56;;;3.89;100.00
57038;BME280;59942;49.304;8.256;2023-01-04T01:46:49;101564.94;;;3.83;100.00
57038;BME280;59942;49.304;8.256;2023-01-04T01:49:30;101582.91;;;3.85;100.00
57038;BME280;59942;49.304;8.256;2023-01-04T01:52:00;101576.91;;;3.86;100.00
57038;BME280;59942;49.304;8.256;2023-01-04T01:54:31;101579.50;;;3.87;100.00
57038;BME280;59942;49.304;8.256;2023-01-04T01:57:02;101525.56;;;3.72;100.00
57038;BME280;59942;49.304;8.256;2023-01-04T01:59:31;101545.25;;;3.73;100.00
57038;BME280;59942;49.304;8.256;2023-01-04T02:01:59;101564.06;;;3.84;100.00
57038;BME280;59942;49.304;8.256;2023-01-04T02:04:26;101556.38;;;3.78;100.00
57038;BME280;59942;49.304;8.256;2023-01-04T02:06:55;101444.97;;;3.16;100.00
57038;BME280;59942;49.304;8.256;2023-01-04T02:09:23;101528.84;;;3.44;100.00
57038;BME280;59942;49.304;8.256;2023-01-04T02:11:50;101516.13;;;3.60;100.00
57038;BME280;59942;49.304;8.256;2023-01-04T02:14:18;101561.50;;;3.82;100.00
57038;BME280;59942;49.304;8.256;2023-01-04T02:17:09;101472.41;;;3.37;100.00
57038;BME280;59942;49.304;8.256;2023-01-04T02:25:50;101536.72;;;3.83;100.00
57038;BME280;59942;49.304;8.256;2023-01-04T02:31:40;101523.84;;;3.78;100.00
57038;BME280;59942;49.304;8.256;2023-01-04T02:35:16;101536.72;;;3.81;100.00
57038;BME280;59942;49.304;8.256;2023-01-04T02:39:53;101533.25;;;3.75;100.00
57038;BME280;59942;49.304;8.256;2023-01-04T02:42:49;101546.09;;;3.78;100.00
57038;BME280;59942;49.304;8.256;2023-01-04T02:46:03;101537.50;;;3.67;100.00
57038;BME280;59942;49.304;8.256;2023-01-04T02:48:36;101531.53;;;3.66;100.00
57038;BME280;59942;49.304;8.256;2023-01-04T02:51:28;101501.56;;;3.54;100.00
57038;BME280;59942;49.304;8.256;2023-01-04T02:53:58;101525.53;;;3.64;100.00
57038;BME280;59942;49.304;8.256;2023-01-04T02:56:58;101525.56;;;3.76;100.00
57038;BME280;59942;49.304;8.256;2023-01-04T02:59:54;101522.16;;;3.76;100.00
57038;BME280;59942;49.304;8.256;2023-01-04T03:05:51;101523.00;;;3.73;100.00
57038;BME280;59942;49.304;8.256;2023-01-04T03:11:16;101487.91;;;3.57;100.00
57038;BME280;59942;49.304;8.256;2023-01-04T03:14:26;101509.28;;;3.63;100.00
57038;BME280;59942;49.304;8.256;2023-01-04T03:17:01;101508.44;;;3.63;100.00
57038;BME280;59942;49.304;8.256;2023-01-04T03:19:30;101484.44;;;3.55;100.00
57038;BME280;59942;49.304;8.256;2023-01-04T03:22:40;101495.59;;;3.57;100.00
57038;BME280;59942;49.304;8.256;2023-01-04T03:25:28;101498.16;;;3.58;100.00
57038;BME280;59942;49.304;8.256;2023-01-04T03:28:16;101464.72;;;3.35;100.00
57038;BME280;59942;49.304;8.256;2023-01-04T03:31:15;101451.91;;;3.41;100.00
57038;BME280;59942;49.304;8.256;2023-01-04T03:34:04;101457.91;;;3.43;100.00
57038;BME280;59942;49.304;8.256;2023-01-04T03:40:38;101413.38;;;3.21;100.00
57038;BME280;59942;49.304;8.256;2023-01-04T03:43:22;101434.78;;;3.31;100.00
57038;BME280;59942;49.304;8.256;2023-01-04T03:46:33;101481.88;;;3.55;100.00
57038;BME280;59942;49.304;8.256;2023-01-04T03:50:04;101478.47;;;3.50;100.00
57038;BME280;59942;49.304;8.256;2023-01-04T03:52:29;101485.34;;;3.57;100.00
57038;BME280;59942;49.304;8.256;2023-01-04T03:54:57;101442.41;;;3.20;100.00
57038;BME280;59942;49.304;8.256;2023-01-04T03:57:26;101408.97;;;2.97;100.00
57038;BME280;59942;49.304;8.256;2023-01-04T03:59:58;101426.09;;;3.04;100.00
57038;BME280;59942;49.304;8.256;2023-01-04T04:02:32;101451.78;;;3.13;100.00
57038;BME280;59942;49.304;8.256;2023-01-04T04:04:58;101415.00;;;2.99;100.00
57038;BME280;59942;49.304;8.256;2023-01-04T04:07:44;101439.81;;;3.14;100.00
57038;BME280;59942;49.304;8.256;2023-01-04T04:10:29;101433.78;;;3.04;100.00
57038;BME280;59942;49.304;8.256;2023-01-04T04:12:56;101435.50;;;3.05;100.00
57038;BME280;59942;49.304;8.256;2023-01-04T04:15:23;101448.44;;;3.25;100.00
57038;BME280;59942;49.304;8.256;2023-01-04T04:17:49;101396.97;;;2.87;100.00
57038;BME280;59942;49.304;8.256;2023-01-04T04:20:16;101407.22;;;2.88;100.00
57038;BME280;59942;49.304;8.256;2023-01-04T04:22:43;101391.84;;;2.88;100.00
57038;BME280;59942;49.304;8.256;2023-01-04T04:25:10;101450.16;;;3.31;100.00
57038;BME280;59942;49.304;8.256;2023-01-04T04:27:36;101386.81;;;3.04;100.00
57038;BME280;59942;49.304;8.256;2023-01-04T04:30:04;101382.53;;;3.00;100.00
57038;BME280;59942;49.304;8.256;2023-01-04T04:32:31;101348.31;;;2.85;100.00
57038;BME280;59942;49.304;8.256;2023-01-04T04:34:57;101308.97;;;2.75;100.00
57038;BME280;59942;49.304;8.256;2023-01-04T04:37:24;101399.75;;;3.32;100.00
57038;BME280;59942;49.304;8.256;2023-01-04T04:39:52;101361.22;;;3.05;100.00
57038;BME280;59942;49.304;8.256;2023-01-04T04:42:19;101261.94;;;2.55;100.00
57038;BME280;59942;49.304;8.256;2023-01-04T04:44:46;101402.34;;;3.41;100.00
57038;BME280;59942;49.304;8.256;2023-01-04T04:47:13;101398.94;;;3.48;100.00
57038;BME280;59942;49.304;8.256;2023-01-04T04:49:39;101415.22;;;3.61;100.00
57038;BME280;59942;49.304;8.256;2023-01-04T04:52:06;101394.69;;;3.52;100.00
57038;BME280;59942;49.304;8.256;2023-01-04T04:54:33;101398.16;;;3.64;100.00
57038;BME280;59942;49.304;8.256;2023-01-04T04:57:00;101393.84;;;3.59;100.00
57038;BME280;59942;49.304;8.256;2023-01-04T04:59:27;101363.03;;;3.36;100.00
57038;BME280;59942;49.304;8.256;2023-01-04T05:01:54;101399.84;;;3.62;100.00
57038;BME280;59942;49.304;8.256;2023-01-04T05:04:21;101434.06;;;3.75;100.00
57038;BME280;59942;49.304;8.256;2023-01-04T05:06:49;101351.94;;;3.38;100.00
57038;BME280;59942;49.304;8.256;2023-01-04T05:09:15;101356.19;;;3.41;100.00
57038;BME280;59942;49.304;8.256;2023-01-04T05:11:42;101418.72;;;3.85;100.00
57038;BME280;59942;49.304;8.256;2023-01-04T05:14:28;101413.59;;;3.86;100.00
57038;BME280;59942;49.304;8.256;2023-01-04T05:16:55;101401.59;;;3.87;100.00
57038;BME280;59942;49.304;8.256;2023-01-04T05:19:21;101422.16;;;3.96;100.00
57038;BME280;59942;49.304;8.256;2023-01-04T05:21:48;101362.25;;;3.63;100.00
57038;BME280;59942;49.304;8.256;2023-01-04T05:24:15;101409.34;;;3.99;100.00
57038;BME280;59942;49.304;8.256;2023-01-04T05:26:42;101405.88;;;4.00;100.00
57038;BME280;59942;49.304;8.256;2023-01-04T05:29:09;101380.22;;;3.85;100.00
57038;BME280;59942;49.304;8.256;2023-01-04T05:31:55;101400.78;;;4.08;100.00
57038;BME280;59942;49.304;8.256;2023-01-04T05:34:22;101321.22;;;3.69;100.00
57038;BME280;59942;49.304;8.256;2023-01-04T05:36:49;101397.38;;;4.16;100.00
57038;BME280;59942;49.304;8.256;2023-01-04T05:39:16;101310.94;;;3.74;100.00
57038;BME280;59942;49.304;8.256;2023-01-04T05:41:42;101330.63;;;3.93;100.00
57038;BME280;59942;49.304;8.256;2023-01-04T05:44:28;101385.41;;;4.26;100.00
57038;BME280;59942;49.304;8.256;2023-01-04T05:46:55;101351.19;;;4.09;100.00
57038;BME280;59942;49.304;8.256;2023-01-04T05:49:21;101389.66;;;4.29;100.00
57038;BME280;59942;49.304;8.256;2023-01-04T05:51:48;101344.31;;;4.11;100.00
57038;BME280;59942;49.304;8.256;2023-01-04T05:54:15;101288.72;;;3.85;100.00
57038;BME280;59942;49.304;8.256;2023-01-04T05:56:47;101300.69;;;4.08;100.00
57038;BME280;59942;49.304;8.256;2023-01-04T05:59:14;101287.84;;;4.11;100.00
57038;BME280;59942;49.304;8.256;2023-01-04T06:01:41;101245.09;;;3.90;100.00
57038;BME280;59942;49.304;8.256;2023-01-04T06:04:08;101300.66;;;4.29;100.00
57038;BME280;59942;49.304;8.256;2023-01-04T06:06:35;101328.00;;;4.44;100.00
57038;BME280;59942;49.304;8.256;2023-01-04T06:09:02;101323.75;;;4.49;100.00
57038;BME280;59942;49.304;8.256;2023-01-04T06:11:29;101360.50;;;4.72;100.00
57038;BME280;59942;49.304;8.256;2023-01-04T06:13:57;101349.34;;;4.79;100.00
57038;BME280;59942;49.304;8.256;2023-01-04T06:16:23;101344.25;;;4.71;100.00
57038;BME280;59942;49.304;8.256;2023-01-04T06:18:50;101310.00;;;4.52;100.00
57038;BME280;59942;49.304;8.256;2023-01-04T06:21:17;101257.88;;;4.24;100.00
57038;BME280;59942;49.304;8.256;2023-01-04T06:23:44;101290.38;;;4.46;100.00
57038;BME280;59942;49.304;8.256;2023-01-04T06:26:11;101320.22;;;4.78;100.00
57038;BME280;59942;49.304;8.256;2023-01-04T06:28:38;101286.03;;;4.56;100.00
57038;BME280;59942;49.304;8.256;2023-01-04T06:31:08;101323.63;;;4.83;100.00
57038;BME280;59942;49.304;8.256;2023-01-04T06:33:35;101333.88;;;4.88;99.32
57038;BME280;59942;49.304;8.256;2023-01-04T06:36:02;101308.25;;;4.77;98.98
57038;BME280;59942;49.304;8.256;2023-01-04T06:38:30;101352.69;;;5.07;98.33
57038;BME280;59942;49.304;8.256;2023-01-04T06:40:57;101330.44;;;4.94;97.76
57038;BME280;59942;49.304;8.256;2023-01-04T06:43:24;101264.59;;;4.65;97.61
57038;BME280;59942;49.304;8.256;2023-01-04T06:45:51;101264.63;;;4.59;97.65
57038;BME280;59942;49.304;8.256;2023-01-04T06:48:18;101260.34;;;4.61;96.74
57038;BME280;59942;49.304;8.256;2023-01-04T06:50:45;101351.78;;;5.16;96.61
57038;BME280;59942;49.304;8.256;2023-01-04T06:53:11;101346.63;;;5.20;96.95
57038;BME280;59942;49.304;8.256;2023-01-04T06:55:38;101303.06;;;4.91;97.24
57038;BME280;59942;49.304;8.256;2023-01-04T06:58:05;101343.97;;;5.30;95.92
57038;BME280;59942;49.304;8.256;2023-01-04T07:00:32;101281.63;;;4.92;96.22
57038;BME280;59942;49.304;8.256;2023-01-04T07:02:59;101302.97;;;5.03;96.58
57038;BME280;59942;49.304;8.256;2023-01-04T07:05:41;101250.84;;;4.81;96.35
57038;BME280;59942;49.304;8.256;2023-01-04T07:08:07;101267.88;;;5.01;96.69
57038;BME280;59942;49.304;8.256;2023-01-04T07:10:35;101221.72;;;4.84;96.81
57038;BME280;59942;49.304;8.256;2023-01-04T07:13:02;101295.22;;;5.17;97.56
57038;BME280;59942;49.304;8.256;2023-01-04T07:15:29;101313.97;;;5.36;97.78
57038;BME280;59942;49.304;8.256;2023-01-04T07:18:06;101313.97;;;5.35;97.63
57038;BME280;59942;49.304;8.256;2023-01-04T07:20:34;101314.00;;;5.29;98.79
57038;BME280;59942;49.304;8.256;2023-01-04T07:23:00;101305.38;;;5.33;98.45
57038;BME280;59942;49.304;8.256;2023-01-04T07:25:27;101290.00;;;5.25;98.43
57038;BME280;59942;49.304;8.256;2023-01-04T07:27:54;101303.72;;;5.26;97.71
57038;BME280;59942;49.304;8.256;2023-01-04T07:30:22;101321.63;;;5.44;98.37
57038;BME280;59942;49.304;8.256;2023-01-04T07:32:53;101325.06;;;5.46;97.99
57038;BME280;59942;49.304;8.256;2023-01-04T07:35:20;101265.34;;;4.92;97.75
57038;BME280;59942;49.304;8.256;2023-01-04T07:37:48;101322.50;;;5.40;98.69
57038;BME280;59942;49.304;8.256;2023-01-04T07:40:24;101307.06;;;5.40;98.39
57038;BME280;59942;49.304;8.256;2023-01-04T07:42:56;101317.28;;;5.52;97.43
57038;BME280;59942;49.304;8.256;2023-01-04T07:45:24;101251.44;;;5.27;96.99
57038;BME280;59942;49.304;8.256;2023-01-04T07:47:51;101260.84;;;5.29;97.65
57038;BME280;59942;49.304;8.256;2023-01-04T07:50:17;101228.25;;;5.31;97.06
57038;BME280;59942;49.304;8.256;2023-01-04T07:52:44;101153.25;;;4.77;97.74
57038;BME280;59942;49.304;8.256;2023-01-04T07:55:11;101231.78;;;5.19;98.06
57038;BME280;59942;49.304;8.256;2023-01-04T07:57:38;101184.84;;;4.91;98.08
57038;BME280;59942;49.304;8.256;2023-01-04T08:00:05;101259.09;;;5.34;98.06
57038;BME280;59942;49.304;8.256;2023-01-04T08:02:32;101262.41;;;5.53;97.48
57038;BME280;59942;49.304;8.256;2023-01-04T08:04:59;101276.06;;;5.59;97.54
57038;BME280;59942;49.304;8.256;2023-01-04T08:07:26;101239.34;;;5.39;96.99
57038;BME280;59942;49.304;8.256;2023-01-04T08:09:53;101227.44;;;5.29;97.29
57038;BME280;59942;49.304;8.256;2023-01-04T08:12:20;101262.44;;;5.50;97.48
57038;BME280;59942;49.304;8.256;2023-01-04T08:14:47;101134.44;;;4.68;98.11
57038;BME280;59942;49.304;8.256;2023-01-04T08:17:13;101276.19;;;5.46;98.39
57038;BME280;59942;49.304;8.256;2023-01-04T08:19:40;101241.97;;;5.35;97.90
57038;BME280;59942;49.304;8.256;2023-01-04T08:22:07;101251.22;;;5.61;97.85
57038;BME280;59942;49.304;8.256;2023-01-04T08:24:34;101261.56;;;5.51;97.88
57038;BME280;59942;49.304;8.256;2023-01-04T08:27:01;101248.72;;;5.47;97.87
57038;BME280;59942;49.304;8.256;2023-01-04T08:29:27;101221.31;;;5.44;97.16
57038;BME280;59942;49.304;8.256;2023-01-04T08:32:00;101179.59;;;5.03;97.43
57038;BME280;59942;49.304;8.256;2023-01-04T08:34:27;101192.28;;;5.30;97.31
57038;BME280;59942;49.304;8.256;2023-01-04T08:36:55;101212.78;;;5.39;97.24
57038;BME280;59942;49.304;8.256;2023-01-04T08:39:22;101266.47;;;5.78;97.12
57038;BME280;59942;49.304;8.256;2023-01-04T08:41:49;101205.84;;;5.46;97.57
57038;BME280;59942;49.304;8.256;2023-01-04T08:44:39;101255.31;;;5.82;97.24
57038;BME280;59942;49.304;8.256;2023-01-04T08:47:06;101221.22;;;5.56;97.35
57038;BME280;59942;49.304;8.256;2023-01-04T08:49:33;101268.97;;;5.90;97.12
57038;BME280;59942;49.304;8.256;2023-01-04T08:52:00;101239.91;;;5.76;96.93
57038;BME280;59942;49.304;8.256;2023-01-04T08:54:26;101251.75;;;5.94;97.40
57038;BME280;59942;49.304;8.256;2023-01-04T08:56:53;101215.16;;;5.65;96.79
57038;BME280;59942;49.304;8.256;2023-01-04T08:59:20;101097.34;;;5.05;96.41
57038;BME280;59942;49.304;8.256;2023-01-04T09:01:47;101208.94;;;5.86;95.79
57038;BME280;59942;49.304;8.256;2023-01-04T09:04:14;101212.31;;;5.91;95.47
57038;BME280;59942;49.304;8.256;2023-01-04T09:06:41;101214.06;;;5.89;95.06
57038;BME280;59942;49.304;8.256;2023-01-04T09:09:08;101225.81;;;6.18;95.25
57038;BME280;59942;49.304;8.256;2023-01-04T09:11:36;101234.34;;;6.23;95.14
57038;BME280;59942;49.304;8.256;2023-01-04T09:14:04;101219.75;;;6.21;94.68
57038;BME280;59942;49.304;8.256;2023-01-04T09:16:37;101224.91;;;6.24;94.60
57038;BME280;59942;49.304;8.256;2023-01-04T09:19:05;101195.03;;;6.07;94.12
57038;BME280;59942;49.304;8.256;2023-01-04T09:21:32;101221.44;;;6.25;93.91
57038;BME280;59942;49.304;8.256;2023-01-04T09:23:59;101236.72;;;6.40;93.34
57038;BME280;59942;49.304;8.256;2023-01-04T09:26:26;101241.00;;;6.43;93.66
57038;BME280;59942;49.304;8.256;2023-01-04T09:28:54;101218.72;;;6.39;94.16
57038;BME280;59942;49.304;8.256;2023-01-04T09:31:24;101194.00;;;6.24;93.47
57038;BME280;59942;49.304;8.256;2023-01-04T09:33:52;101243.47;;;6.51;92.66
57038;BME280;59942;49.304;8.256;2023-01-04T09:36:39;101172.75;;;6.03;93.39
57038;BME280;59942;49.304;8.256;2023-01-04T09:39:06;101223.84;;;6.42;93.71
57038;BME280;59942;49.304;8.256;2023-01-04T09:41:59;101223.72;;;6.50;93.80
57038;BME280;59942;49.304;8.256;2023-01-04T09:44:40;101130.78;;;5.97;94.41
57038;BME280;59942;49.304;8.256;2023-01-04T09:47:36;101164.03;;;6.15;94.39
57038;BME280;59942;49.304;8.256;2023-01-04T09:50:24;101205.59;;;6.59;93.38
57038;BME280;59942;49.304;8.256;2023-01-04T09:53:04;101198.72;;;6.59;93.76
57038;BME280;59942;49.304;8.256;2023-01-04T09:55:37;101167.28;;;6.33;93.75
57038;BME280;59942;49.304;8.256;2023-01-04T09:58:15;101137.47;;;6.12;94.08
57038;BME280;59942;49.304;8.256;2023-01-04T10:00:45;101117.88;;;6.00;93.54
57038;BME280;59942;49.304;8.256;2023-01-04T10:03:24;101205.50;;;6.65;94.39
57038;BME280;59942;49.304;8.256;2023-01-04T10:05:55;101125.38;;;6.20;94.80
57038;BME280;59942;49.304;8.256;2023-01-04T10:08:22;101156.31;;;6.18;94.52
57038;BME280;59942;49.304;8.256;2023-01-04T10:11:21;101239.84;;;6.67;94.53
57038;BME280;59942;49.304;8.256;2023-01-04T10:14:09;101233.78;;;6.70;94.69
57038;BME280;59942;49.304;8.256;2023-01-04T10:22:46;101189.47;;;6.43;95.68
57038;BME280;59942;49.304;8.256;2023-01-04T10:25:23;101161.22;;;6.35;95.16
57038;BME280;59942;49.304;8.256;2023-01-04T10:33:14;101139.69;;;6.41;94.98
57038;BME280;59942;49.304;8.256;2023-01-04T10:35:44;101111.56;;;6.27;95.17
57038;BME280;59942;49.304;8.256;2023-01-04T10:38:23;101155.78;;;6.58;94.80
57038;BME280;59942;49.304;8.256;2023-01-04T10:40:53;101135.38;;;6.45;95.12
57038;BME280;59942;49.304;8.256;2023-01-04T10:49:32;101124.69;;;6.71;94.58
57038;BME280;59942;49.304;8.256;2023-01-04T10:55:11;101175.09;;;6.90;94.92
57038;BME280;59942;49.304;8.256;2023-01-04T10:57:51;101173.34;;;6.92;94.35
57038;BME280;59942;49.304;8.256;2023-01-04T11:00:29;101177.38;;;7.10;94.02
57038;BME280;59942;49.304;8.256;2023-01-04T11:05:49;101174.75;;;7.12;94.05
57038;BME280;59942;49.304;8.256;2023-01-04T11:08:22;101107.31;;;6.84;94.17
57038;BME280;59942;49.304;8.256;2023-01-04T11:10:56;101160.81;;;7.25;94.33
57038;BME280;59942;49.304;8.256;2023-01-04T11:13:25;101110.56;;;6.97;93.78
57038;BME280;59942;49.304;8.256;2023-01-04T11:15:52;101085.78;;;6.88;93.31
57038;BME280;59942;49.304;8.256;2023-01-04T11:18:18;101111.25;;;7.05;93.86
57038;BME280;59942;49.304;8.256;2023-01-04T11:20:45;101021.28;;;6.36;93.97
57038;BME280;59942;49.304;8.256;2023-01-04T11:23:17;101136.75;;;7.23;93.86
57038;BME280;59942;49.304;8.256;2023-01-04T11:25:55;101136.50;;;7.39;94.17
57038;BME280;59942;49.304;8.256;2023-01-04T11:28:50;101164.56;;;7.59;93.64
57038;BME280;59942;49.304;8.256;2023-01-04T11:31:46;101112.72;;;7.21;94.04
57038;BME280;59942;49.304;8.256;2023-01-04T11:34:14;101160.16;;;7.65;93.50
57038;BME280;59942;49.304;8.256;2023-01-04T11:36:43;101163.47;;;7.71;93.79
57038;BME280;59942;49.304;8.256;2023-01-04T11:39:18;101158.31;;;7.71;93.37
57038;BME280;59942;49.304;8.256;2023-01-04T11:42:02;101130.84;;;7.67;93.03
57038;BME280;59942;49.304;8.256;2023-01-04T11:44:34;101144.19;;;7.90;93.29
57038;BME280;59942;49.304;8.256;2023-01-04T11:49:35;101114.78;;;7.97;91.86
57038;BME280;59942;49.304;8.256;2023-01-04T11:52:03;101123.25;;;8.04;92.37
57038;BME280;59942;49.304;8.256;2023-01-04T11:54:30;101097.56;;;7.98;91.53
57038;BME280;59942;49.304;8.256;2023-01-04T11:57:03;101068.34;;;7.94;90.59
57038;BME280;59942;49.304;8.256;2023-01-04T11:59:38;101018.19;;;7.65;91.04
57038;BME280;59942;49.304;8.256;2023-01-04T12:02:24;101111.50;;;8.31;91.04
57038;BME280;59942;49.304;8.256;2023-01-04T12:05:19;101078.00;;;8.27;90.78
57038;BME280;59942;49.304;8.256;2023-01-04T12:07:55;101043.75;;;8.18;90.15
57038;BME280;59942;49.304;8.256;2023-01-04T12:10:25;101052.13;;;8.28;89.59
57038;BME280;59942;49.304;8.256;2023-01-04T12:12:54;101013.66;;;8.16;90.56
57038;BME280;59942;49.304;8.256;2023-01-04T12:15:31;101080.72;;;8.61;89.39
57038;BME280;59942;49.304;8.256;2023-01-04T12:18:18;101030.34;;;8.40;89.46
57038;BME280;59942;49.304;8.256;2023-01-04T12:20:46;101068.53;;;8.66;89.67
57038;BME280;59942;49.304;8.256;2023-01-04T12:23:13;101054.91;;;8.60;89.07
57038;BME280;59942;49.304;8.256;2023-01-04T12:25:43;101065.94;;;8.66;88.30
57038;BME280;59942;49.304;8.256;2023-01-04T12:28:33;101021.75;;;8.40;89.73
57038;BME280;59942;49.304;8.256;2023-01-04T12:33:51;101071.81;;;8.73;88.72
57038;BME280;59942;49.304;8.256;2023-01-04T12:36:34;101059.84;;;8.69;88.55
57038;BME280;59942;49.304;8.256;2023-01-04T12:58:03;101029.31;;;8.85;87.25
57038;BME280;59942;49.304;8.256;2023-01-04T13:01:08;101031.75;;;8.91;87.58
57038;BME280;59942;49.304;8.256;2023-01-04T13:03:46;100994.94;;;8.81;87.83
57038;BME280;59942;49.304;8.256;2023-01-04T13:06:14;100984.63;;;8.80;86.84
57038;BME280;59942;49.304;8.256;2023-01-04T13:08:47;100956.91;;;8.50;87.75
57038;BME280;59942;49.304;8.256;2023-01-04T13:11:35;100960.69;;;8.72;86.84
57038;BME280;59942;49.304;8.256;2023-01-04T13:14:10;100987.81;;;8.90;86.78
57038;BME280;59942;49.304;8.256;2023-01-04T13:24:16;101007.97;;;9.43;84.43
57038;BME280;59942;49.304;8.256;2023-01-04T13:26:45;101004.63;;;9.39;83.96
57038;BME280;59942;49.304;8.256;2023-01-04T13:31:48;100976.91;;;9.43;83.94
57038;BME280;59942;49.304;8.256;2023-01-04T13:34:25;100949.16;;;9.16;84.52
57038;BME280;59942;49.304;8.256;2023-01-04T13:42:27;101003.66;;;9.43;84.93
57038;BME280;59942;49.304;8.256;2023-01-04T13:47:48;100900.22;;;8.77;84.68
57038;BME280;59942;49.304;8.256;2023-01-04T13:50:35;100980.88;;;9.25;85.66
57038;BME280;59942;49.304;8.256;2023-01-04T13:53:03;100963.78;;;9.19;84.83
57038;BME280;59942;49.304;8.256;2023-01-04T13:55:36;100950.75;;;9.22;84.31
57038;BME280;59942;49.304;8.256;2023-01-04T13:58:06;101005.38;;;9.43;83.60
57038;BME280;59942;49.304;8.256;2023-01-04T14:00:55;101001.09;;;9.42;84.53
57038;BME280;59942;49.304;8.256;2023-01-04T14:03:36;101006.13;;;9.48;84.44
57038;BME280;59942;49.304;8.256;2023-01-04T14:09:02;100960.00;;;9.31;84.62
57038;BME280;59942;49.304;8.256;2023-01-04T14:16:48;100971.06;;;9.36;85.31
57038;BME280;59942;49.304;8.256;2023-01-04T14:19:46;100984.00;;;9.36;85.95
57038;BME280;59942;49.304;8.256;2023-01-04T14:24:48;101001.41;;;9.31;87.46
57038;BME280;59942;49.304;8.256;2023-01-04T14:27:41;101011.69;;;9.32;87.12
57038;BME280;59942;49.304;8.256;2023-01-04T14:32:57;101005.84;;;9.26;87.97
57038;BME280;59942;49.304;8.256;2023-01-04T14:35:25;100998.38;;;9.15;88.80
57038;BME280;59942;49.304;8.256;2023-01-04T14:37:53;100985.56;;;9.10;88.25
57038;BME280;59942;49.304;8.256;2023-01-04T14:40:27;100999.06;;;9.21;88.44
57038;BME280;59942;49.304;8.256;2023-01-04T14:42:54;100888.06;;;8.48;88.88
57038;BME280;59942;49.304;8.256;2023-01-04T14:45:21;100979.25;;;9.20;88.52
57038;BME280;59942;49.304;8.256;2023-01-04T14:47:48;100968.44;;;9.06;88.58
57038;BME280;59942;49.304;8.256;2023-01-04T14:50:30;100966.94;;;8.97;89.22
57038;BME280;59942;49.304;8.256;2023-01-04T14:52:57;100968.69;;;8.95;88.81
57038;BME280;59942;49.304;8.256;2023-01-04T14:55:24;100973.03;;;8.95;89.62
57038;BME280;59942;49.304;8.256;2023-01-04T14:57:51;100964.91;;;8.76;90.08
57038;BME280;59942;49.304;8.256;2023-01-04T15:00:18;100965.00;;;8.73;90.17
57038;BME280;59942;49.304;8.256;2023-01-04T15:02:46;100864.63;;;8.20;89.71
57038;BME280;59942;49.304;8.256;2023-01-04T15:05:16;100980.97;;;8.89;90.79
57038;BME280;59942;49.304;8.256;2023-01-04T15:07:47;100954.22;;;8.55;90.65